Carrollton, TX

7:09 AM CST on February 07, 2016 (GMT -0600)
NW Carrollton | | Change Station
CLOSE
Current Station
Personal Weather Station
Location: Carrollton, TX
Elevation: 502 ft
Nearby Weather Stations
Active Advisory: Fire Weather Watch

Elev 502 ft 33.00 °N, 96.92 °W | Updated 25 seconds ago

Overcast
Overcast
36.8 °F
Feels Like 37 °F
N
0.0
Wind Variable Wind from SE
Gusts 1.0 mph

Today
High -- | Low -- °F
--% Chance of Precip.
Yesterday
High -- | Low -- °F
Precip. -- in
Pressure 30.24 in
Visibility 13.0 miles
Clouds Clear
Windchill 37 °F
Dew Point 34 °F
Humidity 88%
Rainfall 0.00 in
Snow Depth Not available.
7:18 AM 6:05 PM
Waning Crescent, 2% visible
METAR KADS 071247Z 00000KT 13SM SKC 03/01 A3024
Pressure 30.24 in
Visibility 13.0 miles
Clouds Clear
Windchill 37 °F
Dew Point 34 °F
Humidity 88%
Rainfall 0.00 in
Snow Depth Not available.
7:18 AM 6:05 PM
Waning Crescent, 2% visible
METAR KADS 071247Z 00000KT 13SM SKC 03/01 A3024

10-Day Weather Forecast

Almanac

Astronomy

Feb. 07, 2016 Rise Set
Actual Time
Civil Twilight
Nautical Twilight
Astronomical Twilight
Moon
Length of Visible Light
Length of Day
Tomorrow will be .
, % of the Moon is Illuminated

Today's Extremes

State Highs State Lows

Community

WunderPhotos

Upload Photos

1,891,189 photos uploaded!

WunderBlog® & News

Nearby

Air Quality

  Air Quality AQ Index Pollutant
Not available.

Snow Depth

Station Depth Elevation

Earthquake Activity

City Distance Mag. Time & Date
Minimum magnitude displayed is 2.5.

Coastal Water Temperatures

Place Temperature

Stations

Nearby Weather Stations

Station Location Temp. Windchill Dew Point Humidity Wind Precip. Elev Updated Type
                   

Watches & Warnings

Fire Weather Watch
Issued: 4:29 AM CST Feb. 7, 2016 – National Weather Service

... Fire Weather Watch in effect Monday for strong northwest winds
and a very dry airmass for locations along and west of a line from
Sherman to Dallas to Centerville...

The National Weather Service in Fort Worth has issued a Fire
Weather Watch... which is in effect Monday.

* Affected area... along and west of a line from Sherman to Dallas
to Centerville.

* Timing... from mid morning through the afternoon hours on Monday.
Conditions will improve after sunset as temperatures drop and
winds subside.

* Winds... northwest at 25 mph with gusts to 35 mph.

* Rh... minimum values between 15 and 25 percent.

* Impacts... any fire that develops will be able to spread
rapidly.

Precautionary/preparedness actions...

A Fire Weather Watch means that critical fire weather conditions
are forecast to occur. Listen for later forecasts and possible
red flag warnings.



30